Verbank, New York
Current Conditions -  °F | °C
As of 4:53 AM on Saturday 22 Nov 2014 (Local Time) from KPOU Reporting Station
Clear Clear  
Wind Chill: 18°   Ceiling: Unl
Heat Index: 24°   Visibility: 10mi
Dew Point: 11°   Wind: 5mph
Humidity: 57%   Direction: 190°S
Pressure: 30.45"   Gusts: NA
Location:  41.72°N, 73.71°W
Report Text: KPOU 220953Z AUTO 19004KT 10SM CLR M04/M12 A3045 RMK AO2 SLP312 T10441117 TSNO
Loading
Personal Weather Stations






























Interactive Weather Map New forecast layout! Learn more

10-Day Weather Forecast

Advertisements
Track Severe Weather on mobile